createdAt,value
2023-07-19T00:02:27.425Z,20.13
2023-07-19T00:04:55.289Z,20.13
2023-07-19T00:07:23.088Z,20.17
2023-07-19T00:09:50.778Z,20.21
2023-07-19T00:12:18.570Z,20.26
2023-07-19T00:14:46.314Z,20.31
2023-07-19T00:17:14.156Z,20.36
2023-07-19T00:19:41.880Z,20.41
2023-07-19T00:22:10.136Z,20.45
2023-07-19T00:24:37.910Z,20.48
2023-07-19T00:27:05.859Z,20.52
2023-07-19T00:29:33.632Z,20.55
2023-07-19T00:32:01.275Z,20.56
2023-07-19T00:34:29.059Z,20.58
2023-07-19T00:36:56.810Z,20.61
2023-07-19T00:39:24.533Z,20.63
2023-07-19T00:41:52.343Z,20.64
2023-07-19T00:44:20.568Z,20.61
2023-07-19T00:46:48.324Z,20.58
2023-07-19T00:49:16.049Z,20.53
2023-07-19T00:51:43.856Z,20.47
2023-07-19T00:54:11.689Z,20.41
2023-07-19T00:56:42.034Z,20.36
2023-07-19T00:59:09.796Z,20.33
2023-07-19T01:01:37.701Z,20.31
2023-07-19T01:04:05.744Z,20.28
2023-07-19T01:06:33.449Z,20.27
2023-07-19T01:09:01.307Z,20.28
2023-07-19T01:11:29.116Z,20.30
2023-07-19T01:13:56.872Z,20.31
2023-07-19T01:16:24.699Z,20.31
2023-07-19T01:18:52.479Z,20.32
2023-07-19T01:21:23.916Z,20.31
2023-07-19T01:23:52.253Z,20.29
2023-07-19T01:26:20.063Z,20.28
2023-07-19T01:28:48.083Z,20.28
2023-07-19T01:31:19.186Z,20.28
2023-07-19T01:33:47.621Z,20.29
2023-07-19T01:36:15.382Z,20.30
2023-07-19T01:38:43.006Z,20.31
2023-07-19T01:41:10.767Z,20.32
2023-07-19T01:43:38.534Z,20.31
2023-07-19T01:46:06.289Z,20.29
2023-07-19T01:48:34.488Z,20.27
2023-07-19T01:51:03.839Z,20.26
2023-07-19T01:53:31.760Z,20.26
2023-07-19T01:55:59.630Z,20.26
2023-07-19T01:58:27.319Z,20.25
2023-07-19T02:00:55.439Z,20.23
2023-07-19T02:03:23.398Z,20.24
2023-07-19T02:06:00.917Z,20.25
2023-07-19T02:08:29.054Z,20.27
2023-07-19T02:10:56.760Z,20.30
2023-07-19T02:13:24.528Z,20.34
2023-07-19T02:15:52.320Z,20.39
2023-07-19T02:18:22.160Z,20.43
2023-07-19T02:20:52.797Z,20.45
2023-07-19T02:23:20.816Z,20.47
2023-07-19T02:25:49.560Z,20.47
2023-07-19T02:28:17.796Z,20.48
2023-07-19T02:30:46.023Z,20.50
2023-07-19T02:33:14.480Z,20.52
2023-07-19T02:35:42.830Z,20.54
2023-07-19T02:38:11.597Z,20.52
2023-07-19T02:40:40.768Z,20.49
2023-07-19T02:43:08.554Z,20.47
2023-07-19T02:45:36.418Z,20.45
2023-07-19T02:48:04.138Z,20.43
2023-07-19T02:50:32.044Z,20.40
2023-07-19T02:52:59.711Z,20.39
2023-07-19T02:55:27.484Z,20.38
2023-07-19T02:57:55.282Z,20.38
2023-07-19T03:00:22.994Z,20.37
2023-07-19T03:02:55.709Z,20.37
2023-07-19T03:05:23.923Z,20.37
2023-07-19T03:07:52.048Z,20.37
2023-07-19T03:10:19.773Z,20.40
2023-07-19T03:12:47.454Z,20.43
2023-07-19T03:15:15.549Z,20.45
2023-07-19T03:17:43.346Z,20.47
2023-07-19T03:20:11.792Z,20.50
2023-07-19T03:22:39.621Z,20.54
2023-07-19T03:25:07.597Z,20.56
2023-07-19T03:27:35.398Z,20.57
2023-07-19T03:30:03.526Z,20.58
2023-07-19T03:32:31.264Z,20.58
2023-07-19T03:34:59.027Z,20.59
2023-07-19T03:37:26.708Z,20.58
2023-07-19T03:39:54.508Z,20.56
2023-07-19T03:42:22.234Z,20.56
2023-07-19T03:44:49.998Z,20.55
2023-07-19T03:47:17.701Z,20.55
2023-07-19T03:49:45.479Z,20.56
2023-07-19T03:52:13.265Z,20.55
2023-07-19T03:54:40.932Z,20.57
2023-07-19T03:57:08.741Z,20.58
2023-07-19T03:59:36.505Z,20.60
2023-07-19T04:02:04.352Z,20.63
2023-07-19T04:04:32.234Z,20.65
2023-07-19T04:07:00.089Z,20.68
2023-07-19T04:09:27.769Z,20.73
2023-07-19T04:11:55.752Z,20.77
2023-07-19T04:14:23.586Z,20.79
2023-07-19T04:16:51.440Z,20.81
2023-07-19T04:19:19.179Z,20.81
2023-07-19T04:21:46.969Z,20.80
2023-07-19T04:24:14.715Z,20.78
2023-07-19T04:26:42.474Z,20.78
2023-07-19T04:29:10.240Z,20.78
2023-07-19T04:31:37.948Z,20.79
2023-07-19T04:34:05.683Z,20.82
2023-07-19T04:36:33.430Z,20.85
2023-07-19T04:39:01.152Z,20.88
2023-07-19T04:41:29.113Z,20.91
2023-07-19T04:43:57.289Z,20.94
2023-07-19T04:46:25.686Z,20.97
2023-07-19T04:48:53.537Z,20.97
2023-07-19T04:51:21.789Z,20.98
2023-07-19T04:53:49.984Z,20.96
2023-07-19T04:56:17.908Z,20.94
2023-07-19T04:58:45.639Z,20.92
2023-07-19T05:01:13.356Z,20.88
2023-07-19T05:03:41.215Z,20.87
2023-07-19T05:06:09.353Z,20.88
2023-07-19T05:08:38.687Z,20.90
2023-07-19T05:11:06.581Z,20.93
2023-07-19T05:13:34.308Z,20.98
2023-07-19T05:16:03.073Z,21.06
2023-07-19T05:18:30.880Z,21.12
2023-07-19T05:20:58.747Z,21.18
2023-07-19T05:23:26.772Z,21.26
2023-07-19T05:25:54.599Z,21.32
2023-07-19T05:28:22.471Z,21.38
2023-07-19T05:30:50.188Z,21.44
2023-07-19T05:33:18.350Z,21.50
2023-07-19T05:35:48.312Z,21.54
2023-07-19T05:38:16.414Z,21.59
2023-07-19T05:40:44.234Z,21.64
2023-07-19T05:43:11.935Z,21.70
2023-07-19T05:45:39.798Z,21.75
2023-07-19T05:48:07.680Z,21.80
2023-07-19T05:50:36.617Z,21.86
2023-07-19T05:53:04.720Z,21.92
2023-07-19T05:55:32.493Z,21.99
2023-07-19T05:58:00.206Z,22.05
2023-07-19T06:00:30.041Z,22.11
2023-07-19T06:02:58.418Z,22.17
2023-07-19T06:05:27.297Z,22.21
2023-07-19T06:07:56.671Z,22.23
2023-07-19T06:10:27.487Z,22.24
2023-07-19T06:12:55.244Z,22.25
2023-07-19T06:15:23.081Z,22.30
2023-07-19T06:17:51.314Z,22.40
2023-07-19T06:20:19.197Z,22.50
2023-07-19T06:22:47.045Z,22.58
2023-07-19T06:25:16.675Z,22.66
2023-07-19T06:27:44.489Z,22.73
2023-07-19T06:30:12.469Z,22.78
2023-07-19T06:32:40.392Z,22.82
2023-07-19T06:35:10.244Z,22.86
2023-07-19T06:37:38.208Z,22.90
2023-07-19T06:40:06.956Z,22.94
2023-07-19T06:42:34.768Z,22.99
2023-07-19T06:45:02.482Z,23.07
2023-07-19T06:47:31.306Z,23.15
2023-07-19T06:49:59.596Z,23.23
2023-07-19T06:52:29.218Z,23.33
2023-07-19T06:54:57.343Z,23.45
2023-07-19T06:57:25.160Z,23.55
2023-07-19T06:59:53.264Z,23.66
2023-07-19T07:02:21.140Z,23.77
2023-07-19T07:04:49.488Z,23.87
2023-07-19T07:07:20.435Z,23.95
2023-07-19T07:09:48.408Z,24.01
2023-07-19T07:12:16.279Z,24.06
2023-07-19T07:14:44.052Z,24.10
2023-07-19T07:17:11.940Z,24.16
2023-07-19T07:19:39.642Z,24.22
2023-07-19T07:22:07.316Z,24.29
2023-07-19T07:24:35.855Z,24.37
2023-07-19T07:27:04.329Z,24.45
2023-07-19T07:29:32.070Z,24.53
2023-07-19T07:31:59.890Z,24.61
2023-07-19T07:34:27.785Z,24.68
2023-07-19T07:36:55.530Z,24.77
2023-07-19T07:39:23.361Z,24.86
2023-07-19T07:41:51.120Z,24.95
2023-07-19T07:44:19.049Z,25.03
2023-07-19T07:46:48.235Z,25.12
2023-07-19T07:49:16.106Z,25.22
2023-07-19T07:51:43.955Z,25.30
2023-07-19T07:54:11.791Z,25.40
2023-07-19T07:56:39.549Z,25.48
2023-07-19T07:59:07.360Z,25.57
2023-07-19T08:01:35.090Z,25.66
2023-07-19T08:04:03.450Z,25.77
2023-07-19T08:06:31.361Z,25.87
2023-07-19T08:08:59.165Z,25.99
2023-07-19T08:11:27.997Z,26.10
2023-07-19T08:13:55.670Z,26.20
2023-07-19T08:16:23.516Z,26.29
2023-07-19T08:18:51.468Z,26.40
2023-07-19T08:21:33.869Z,26.49
2023-07-19T08:24:02.621Z,26.56
2023-07-19T08:26:30.381Z,26.58
2023-07-19T08:28:58.497Z,26.61
2023-07-19T08:31:26.294Z,26.68
2023-07-19T08:33:54.818Z,26.79
2023-07-19T08:36:22.684Z,26.88
2023-07-19T08:38:50.671Z,26.95
2023-07-19T08:41:20.099Z,27.03
2023-07-19T08:43:48.138Z,27.11
2023-07-19T08:46:19.234Z,27.20
2023-07-19T08:48:50.555Z,27.30
2023-07-19T08:51:18.789Z,27.40
2023-07-19T08:53:46.881Z,27.50
2023-07-19T08:56:18.719Z,27.61
2023-07-19T08:58:47.025Z,27.69
2023-07-19T09:01:15.323Z,27.75
2023-07-19T09:03:43.594Z,27.84
2023-07-19T09:06:11.619Z,27.93
2023-07-19T09:08:40.055Z,28.05
2023-07-19T09:11:08.578Z,28.13
2023-07-19T09:13:39.994Z,28.21
2023-07-19T09:16:08.353Z,28.31
2023-07-19T09:18:38.187Z,28.38
2023-07-19T09:21:06.995Z,28.44
2023-07-19T09:23:38.841Z,28.50
2023-07-19T09:26:07.507Z,28.50
2023-07-19T09:28:35.921Z,28.59
2023-07-19T09:33:35.662Z,28.88
2023-07-19T09:36:03.554Z,28.97
2023-07-19T09:38:31.390Z,29.01
2023-07-19T09:40:59.831Z,29.07
2023-07-19T09:43:27.946Z,29.13
2023-07-19T09:45:56.385Z,29.20
2023-07-19T09:48:24.151Z,29.25
2023-07-19T09:50:53.328Z,29.35
2023-07-19T09:53:23.753Z,29.46
2023-07-19T09:55:53.771Z,29.56
2023-07-19T09:58:22.535Z,29.56
2023-07-19T10:00:51.506Z,29.66
2023-07-19T10:03:22.792Z,29.77
2023-07-19T10:05:57.934Z,29.86
2023-07-19T10:08:25.739Z,29.99
2023-07-19T10:10:58.422Z,30.14
2023-07-19T10:13:32.945Z,30.31
2023-07-19T10:16:00.649Z,30.50
2023-07-19T10:18:30.795Z,30.68
2023-07-19T10:21:04.101Z,30.81
2023-07-19T10:23:32.590Z,30.94
2023-07-19T10:26:05.641Z,31.11
2023-07-19T10:28:33.696Z,31.22
2023-07-19T10:31:17.766Z,31.24
2023-07-19T10:33:54.284Z,31.33
2023-07-19T10:36:22.182Z,31.46
2023-07-19T10:38:50.245Z,31.66
2023-07-19T10:41:20.672Z,31.86
2023-07-19T10:43:52.687Z,32.02
2023-07-19T10:46:23.950Z,32.09
2023-07-19T10:48:52.583Z,32.20
2023-07-19T10:51:22.261Z,32.39
2023-07-19T10:53:59.073Z,32.52
2023-07-19T10:56:28.735Z,32.68
2023-07-19T10:59:00.477Z,32.83
2023-07-19T11:01:31.317Z,32.99
2023-07-19T11:04:04.104Z,33.09
2023-07-19T11:06:32.944Z,33.05
2023-07-19T11:09:07.518Z,32.79
2023-07-19T11:11:37.484Z,32.53
2023-07-19T11:14:05.366Z,32.54
2023-07-19T11:16:33.203Z,32.69
2023-07-19T11:19:01.046Z,32.65
2023-07-19T11:21:29.482Z,32.66
2023-07-19T11:23:58.077Z,32.63
2023-07-19T11:26:25.828Z,32.36
2023-07-19T11:28:57.566Z,32.20
2023-07-19T11:31:30.036Z,32.14
2023-07-19T11:34:08.332Z,32.10
2023-07-19T11:36:40.517Z,32.16
2023-07-19T11:39:18.392Z,32.30
2023-07-19T11:41:47.452Z,32.46
2023-07-19T11:44:16.126Z,32.61
2023-07-19T11:46:44.459Z,32.67
2023-07-19T11:49:12.357Z,32.68
2023-07-19T11:51:40.549Z,32.73
2023-07-19T11:54:08.806Z,32.82
2023-07-19T11:56:37.058Z,32.83
2023-07-19T11:59:06.070Z,32.63
2023-07-19T12:01:33.856Z,32.49
2023-07-19T12:04:03.651Z,32.43
2023-07-19T12:06:32.566Z,32.44
2023-07-19T12:09:00.719Z,32.48
2023-07-19T12:11:28.842Z,32.47
2023-07-19T12:13:59.143Z,32.46
2023-07-19T12:16:27.424Z,32.32
2023-07-19T12:18:55.442Z,32.03
2023-07-19T12:21:23.388Z,31.83
2023-07-19T12:28:54.861Z,31.67
2023-07-19T12:31:22.696Z,31.56
2023-07-19T12:33:50.951Z,31.51
2023-07-19T12:36:19.042Z,31.48
2023-07-19T12:38:49.125Z,31.39
2023-07-19T12:41:17.804Z,31.29
2023-07-19T12:43:45.516Z,31.29
2023-07-19T12:46:13.504Z,31.35
2023-07-19T12:48:41.889Z,31.41
2023-07-19T12:51:09.851Z,31.44
2023-07-19T12:53:39.268Z,31.46
2023-07-19T12:56:07.964Z,31.46
2023-07-19T12:58:35.864Z,31.43
2023-07-19T13:01:03.785Z,31.36
2023-07-19T13:03:31.781Z,31.35
2023-07-19T13:05:59.875Z,31.27
2023-07-19T13:08:28.625Z,31.16
2023-07-19T13:10:57.274Z,31.06
2023-07-19T13:13:26.462Z,31.01
2023-07-19T13:15:54.202Z,31.03
2023-07-19T13:18:22.111Z,31.06
2023-07-19T13:20:49.935Z,31.11
2023-07-19T13:23:18.495Z,31.16
2023-07-19T13:25:46.630Z,31.19
2023-07-19T13:28:15.003Z,31.16
2023-07-19T13:30:44.364Z,31.09
2023-07-19T13:33:12.531Z,31.02
2023-07-19T13:38:11.027Z,30.91
2023-07-19T13:40:39.490Z,30.88
2023-07-19T13:43:07.589Z,30.82
2023-07-19T13:45:35.455Z,30.78
2023-07-19T13:48:03.937Z,30.73
2023-07-19T13:50:31.962Z,30.70
2023-07-19T13:53:00.369Z,30.66
2023-07-19T13:55:28.206Z,30.58
2023-07-19T13:57:56.006Z,30.55
2023-07-19T14:00:24.400Z,30.51
2023-07-19T14:02:52.178Z,30.51
2023-07-19T14:05:21.193Z,30.65
2023-07-19T14:07:49.145Z,30.89
2023-07-19T14:10:16.911Z,31.15
2023-07-19T14:12:45.130Z,31.34
2023-07-19T14:15:12.975Z,31.46
2023-07-19T14:17:41.540Z,31.54
2023-07-19T14:20:10.759Z,31.57
2023-07-19T14:22:38.579Z,31.56
2023-07-19T14:25:08.123Z,31.54
2023-07-19T14:27:38.113Z,31.53
2023-07-19T14:30:07.955Z,31.51
2023-07-19T14:32:36.366Z,31.46
2023-07-19T14:35:04.413Z,31.36
2023-07-19T14:37:32.545Z,31.27
2023-07-19T14:40:00.385Z,31.19
2023-07-19T14:42:28.199Z,31.18
2023-07-19T14:44:55.947Z,31.21
2023-07-19T14:47:24.916Z,31.28
2023-07-19T14:49:52.937Z,31.35
2023-07-19T14:52:21.269Z,31.46
2023-07-19T14:54:51.045Z,31.58
2023-07-19T14:57:19.039Z,31.67
2023-07-19T14:59:50.014Z,31.70
2023-07-19T15:02:33.504Z,31.72
2023-07-19T15:05:03.047Z,31.77
2023-07-19T15:07:30.836Z,31.81
2023-07-19T15:09:58.665Z,31.87
2023-07-19T15:12:26.556Z,31.88
2023-07-19T15:14:54.314Z,31.79
2023-07-19T15:17:23.181Z,31.73
2023-07-19T15:19:51.143Z,31.74
2023-07-19T15:22:20.571Z,31.73
2023-07-19T15:24:49.015Z,31.73
2023-07-19T15:27:16.837Z,31.75
2023-07-19T15:29:47.122Z,31.74
2023-07-19T15:32:15.327Z,31.72
2023-07-19T15:34:43.071Z,31.68
2023-07-19T15:37:10.812Z,31.65
2023-07-19T15:39:38.634Z,31.63
2023-07-19T15:42:06.639Z,31.63
2023-07-19T15:44:36.624Z,31.58
2023-07-19T15:47:05.674Z,31.51
2023-07-19T15:49:34.030Z,31.48
2023-07-19T15:52:02.044Z,31.48
2023-07-19T15:54:30.305Z,31.47
2023-07-19T15:56:58.484Z,31.46
2023-07-19T15:59:26.232Z,31.49
2023-07-19T16:01:54.808Z,31.52
2023-07-19T16:04:23.198Z,31.53
2023-07-19T16:06:50.988Z,31.44
2023-07-19T16:09:18.679Z,31.38
2023-07-19T16:11:46.439Z,31.30
2023-07-19T16:14:14.169Z,31.21
2023-07-19T16:16:41.888Z,31.12
2023-07-19T16:19:10.462Z,30.97
2023-07-19T16:21:39.052Z,30.82
2023-07-19T16:24:06.797Z,30.68
2023-07-19T16:26:34.551Z,30.56
2023-07-19T16:29:02.261Z,30.47
2023-07-19T16:31:30.067Z,30.45
2023-07-19T16:33:58.067Z,30.47
2023-07-19T16:36:25.856Z,30.51
2023-07-19T16:38:53.805Z,30.56
2023-07-19T16:41:21.682Z,30.54
2023-07-19T16:43:49.481Z,30.50
2023-07-19T16:46:17.204Z,30.49
2023-07-19T16:48:45.001Z,30.48
2023-07-19T16:51:12.789Z,30.43
2023-07-19T16:53:40.501Z,30.36
2023-07-19T16:56:08.619Z,30.30
2023-07-19T16:58:36.433Z,30.28
2023-07-19T17:01:04.301Z,30.30
2023-07-19T17:03:32.338Z,30.37
2023-07-19T17:06:00.117Z,30.43
2023-07-19T17:08:27.910Z,30.52
2023-07-19T17:10:55.795Z,30.54
2023-07-19T17:13:25.770Z,30.50
2023-07-19T17:15:54.086Z,30.45
2023-07-19T17:18:23.996Z,30.38
2023-07-19T17:20:52.161Z,30.30
2023-07-19T17:23:20.042Z,30.21
2023-07-19T17:25:47.809Z,30.15
2023-07-19T17:28:16.019Z,30.08
2023-07-19T17:30:43.869Z,30.00
2023-07-19T17:33:11.694Z,29.95
2023-07-19T17:35:39.642Z,29.90
2023-07-19T17:38:07.757Z,29.81
2023-07-19T17:40:35.538Z,29.73
2023-07-19T17:43:03.607Z,29.65
2023-07-19T17:45:31.287Z,29.54
2023-07-19T17:47:59.441Z,29.42
2023-07-19T17:50:27.811Z,29.32
2023-07-19T17:52:55.737Z,29.23
2023-07-19T17:55:23.525Z,29.15
2023-07-19T17:57:57.374Z,29.06
2023-07-19T18:00:25.477Z,28.95
2023-07-19T18:02:53.674Z,28.86
2023-07-19T18:05:21.579Z,28.79
2023-07-19T18:07:49.362Z,28.71
2023-07-19T18:10:17.318Z,28.64
2023-07-19T18:12:45.106Z,28.57
2023-07-19T18:15:13.078Z,28.49
2023-07-19T18:17:41.416Z,28.42
2023-07-19T18:20:09.807Z,28.33
2023-07-19T18:22:37.769Z,28.26
2023-07-19T18:25:05.792Z,28.19
2023-07-19T18:27:33.651Z,28.14
2023-07-19T18:30:01.469Z,28.07
2023-07-19T18:32:30.544Z,28.00
2023-07-19T18:34:58.404Z,27.93
2023-07-19T18:37:26.308Z,27.82
2023-07-19T18:39:56.429Z,27.73
2023-07-19T18:42:24.749Z,27.62
2023-07-19T18:44:52.558Z,27.54
2023-07-19T18:47:20.427Z,27.48
2023-07-19T18:49:48.196Z,27.41
2023-07-19T18:52:15.973Z,27.33
2023-07-19T18:54:43.706Z,27.28
2023-07-19T18:57:11.530Z,27.22
2023-07-19T18:59:39.792Z,27.17
2023-07-19T19:02:07.506Z,27.13
2023-07-19T19:04:35.251Z,27.08
2023-07-19T19:07:03.767Z,27.02
2023-07-19T19:09:34.282Z,26.93
2023-07-19T19:12:03.998Z,26.85
2023-07-19T19:14:31.832Z,26.78
2023-07-19T19:16:59.885Z,26.70
2023-07-19T19:19:28.076Z,26.64
2023-07-19T19:21:55.834Z,26.56
2023-07-19T19:24:23.553Z,26.47
2023-07-19T19:26:51.430Z,26.36
2023-07-19T19:29:21.907Z,26.28
2023-07-19T19:31:49.719Z,26.20
2023-07-19T19:34:17.535Z,26.12
2023-07-19T19:36:45.749Z,26.05
2023-07-19T19:39:28.445Z,26.00
2023-07-19T19:41:58.333Z,25.94
2023-07-19T19:44:26.081Z,25.87
2023-07-19T19:46:53.901Z,25.79
2023-07-19T19:49:21.628Z,25.70
2023-07-19T19:51:52.146Z,25.59
2023-07-19T19:54:19.982Z,25.48
2023-07-19T19:56:51.275Z,25.37
2023-07-19T19:59:21.810Z,25.28
2023-07-19T20:01:51.872Z,25.19
2023-07-19T20:04:39.184Z,25.11
2023-07-19T20:07:07.281Z,25.07
2023-07-19T20:09:40.894Z,25.04
2023-07-19T20:12:15.290Z,25.00
2023-07-19T20:14:43.156Z,24.98
2023-07-19T20:17:10.998Z,24.97
2023-07-19T20:19:38.736Z,24.97
2023-07-19T20:22:06.701Z,24.97
2023-07-19T20:24:41.265Z,25.00
2023-07-19T20:27:17.965Z,25.03
2023-07-19T20:34:56.496Z,25.09
2023-07-19T20:39:56.290Z,25.09
2023-07-19T20:42:27.349Z,25.06
2023-07-19T20:44:56.019Z,25.02
2023-07-19T20:47:23.898Z,24.99
2023-07-19T20:49:51.771Z,24.95
2023-07-19T20:52:19.558Z,24.92
2023-07-19T20:54:47.326Z,24.83
2023-07-19T20:57:15.102Z,24.69
2023-07-19T20:59:43.486Z,24.55
2023-07-19T21:02:11.236Z,24.34
2023-07-19T21:04:39.436Z,24.13
2023-07-19T21:07:07.670Z,23.89
2023-07-19T21:09:35.384Z,23.63
2023-07-19T21:12:03.423Z,23.32
2023-07-19T21:14:31.255Z,23.04
2023-07-19T21:16:59.175Z,22.82
2023-07-19T21:19:26.959Z,22.64
2023-07-19T21:21:55.145Z,22.52
2023-07-19T21:24:22.926Z,22.43
2023-07-19T21:26:50.728Z,22.36
2023-07-19T21:29:18.745Z,22.29
2023-07-19T21:31:46.486Z,22.20
2023-07-19T21:34:14.971Z,22.12
2023-07-19T21:36:42.878Z,22.01
2023-07-19T21:39:10.598Z,21.94
2023-07-19T21:41:38.386Z,21.91
2023-07-19T21:44:06.878Z,21.87
2023-07-19T21:46:34.893Z,21.87
2023-07-19T21:49:02.680Z,21.88
2023-07-19T21:51:30.622Z,21.91
2023-07-19T21:53:58.360Z,21.92
2023-07-19T21:56:26.571Z,21.95
2023-07-19T21:58:54.826Z,21.99
2023-07-19T22:01:22.560Z,22.02
2023-07-19T22:03:50.386Z,22.05
2023-07-19T22:06:18.334Z,22.08
2023-07-19T22:08:46.037Z,22.09
2023-07-19T22:11:13.818Z,22.05
2023-07-19T22:13:42.946Z,22.01
2023-07-19T22:16:10.754Z,21.96
2023-07-19T22:18:38.481Z,21.89
2023-07-19T22:21:19.822Z,21.87
2023-07-19T22:23:49.845Z,21.90
2023-07-19T22:26:17.655Z,21.92
2023-07-19T22:28:45.335Z,21.94
2023-07-19T22:31:13.152Z,21.95
2023-07-19T22:33:41.176Z,21.94
2023-07-19T22:36:08.936Z,21.93
2023-07-19T22:38:37.050Z,21.91
2023-07-19T22:41:04.870Z,21.89
2023-07-19T22:43:33.546Z,21.89
2023-07-19T22:46:01.332Z,21.91
2023-07-19T22:48:29.119Z,21.90
2023-07-19T22:50:56.968Z,21.90
2023-07-19T22:53:24.725Z,21.91
2023-07-19T22:55:52.426Z,21.92
2023-07-19T22:58:20.164Z,21.92
2023-07-19T23:00:51.898Z,21.88
2023-07-19T23:03:19.740Z,21.83
2023-07-19T23:05:47.566Z,21.80
2023-07-19T23:08:15.369Z,21.76
2023-07-19T23:10:43.083Z,21.68
2023-07-19T23:13:10.782Z,21.61
2023-07-19T23:15:38.562Z,21.56
2023-07-19T23:18:06.555Z,21.49
2023-07-19T23:20:34.339Z,21.46
2023-07-19T23:23:02.042Z,21.45
2023-07-19T23:25:31.289Z,21.44
2023-07-19T23:28:02.000Z,21.42
2023-07-19T23:30:30.743Z,21.41
2023-07-19T23:32:58.645Z,21.38
2023-07-19T23:35:26.397Z,21.37
2023-07-19T23:37:54.508Z,21.38
2023-07-19T23:40:22.268Z,21.39
2023-07-19T23:42:49.979Z,21.37
2023-07-19T23:45:17.716Z,21.36
2023-07-19T23:47:45.445Z,21.37
2023-07-19T23:50:13.192Z,21.35
2023-07-19T23:52:41.105Z,21.34
2023-07-19T23:55:08.906Z,21.34
2023-07-19T23:57:36.709Z,21.36
